sensor_id;sensor_type;location;lat;lon;timestamp;temperature;humidity
37088;DHT22;23002;52.676;6.432;2023-12-29T00:00:26;11.40;99.90
37088;DHT22;23002;52.676;6.432;2023-12-29T00:02:52;11.40;99.90
37088;DHT22;23002;52.676;6.432;2023-12-29T00:05:19;11.40;99.90
37088;DHT22;23002;52.676;6.432;2023-12-29T00:07:46;11.40;99.90
37088;DHT22;23002;52.676;6.432;2023-12-29T00:10:13;11.30;99.90
37088;DHT22;23002;52.676;6.432;2023-12-29T00:12:40;11.20;99.90
37088;DHT22;23002;52.676;6.432;2023-12-29T00:15:07;11.20;99.90
37088;DHT22;23002;52.676;6.432;2023-12-29T00:17:34;11.20;99.90
37088;DHT22;23002;52.676;6.432;2023-12-29T00:20:04;11.20;99.90
37088;DHT22;23002;52.676;6.432;2023-12-29T00:22:31;11.10;99.90
37088;DHT22;23002;52.676;6.432;2023-12-29T00:24:58;11.20;99.90
37088;DHT22;23002;52.676;6.432;2023-12-29T00:27:25;11.30;99.90
37088;DHT22;23002;52.676;6.432;2023-12-29T00:29:51;11.40;99.90
37088;DHT22;23002;52.676;6.432;2023-12-29T00:32:18;11.10;99.90
37088;DHT22;23002;52.676;6.432;2023-12-29T00:34:45;11.10;99.90
37088;DHT22;23002;52.676;6.432;2023-12-29T00:37:12;11.10;99.90
37088;DHT22;23002;52.676;6.432;2023-12-29T00:39:39;11.20;99.90
37088;DHT22;23002;52.676;6.432;2023-12-29T00:42:07;11.20;99.90
37088;DHT22;23002;52.676;6.432;2023-12-29T00:44:34;11.30;99.90
37088;DHT22;23002;52.676;6.432;2023-12-29T00:47:01;11.20;99.90
37088;DHT22;23002;52.676;6.432;2023-12-29T00:49:27;11.30;99.90
37088;DHT22;23002;52.676;6.432;2023-12-29T00:51:54;11.30;99.90
37088;DHT22;23002;52.676;6.432;2023-12-29T00:54:21;11.20;99.90
37088;DHT22;23002;52.676;6.432;2023-12-29T00:56:49;11.20;99.90
37088;DHT22;23002;52.676;6.432;2023-12-29T00:59:17;11.30;99.90
37088;DHT22;23002;52.676;6.432;2023-12-29T01:01:44;11.30;99.90
37088;DHT22;23002;52.676;6.432;2023-12-29T01:04:12;11.20;99.90
37088;DHT22;23002;52.676;6.432;2023-12-29T01:06:39;11.20;99.90
37088;DHT22;23002;52.676;6.432;2023-12-29T01:09:06;11.20;99.90
37088;DHT22;23002;52.676;6.432;2023-12-29T01:11:35;11.30;99.90
37088;DHT22;23002;52.676;6.432;2023-12-29T01:14:02;11.30;99.90
37088;DHT22;23002;52.676;6.432;2023-12-29T01:16:29;11.20;99.90
37088;DHT22;23002;52.676;6.432;2023-12-29T01:18:55;11.20;99.90
37088;DHT22;23002;52.676;6.432;2023-12-29T01:21:22;11.20;99.90
37088;DHT22;23002;52.676;6.432;2023-12-29T01:23:49;11.50;99.90
37088;DHT22;23002;52.676;6.432;2023-12-29T01:26:16;11.60;99.90
37088;DHT22;23002;52.676;6.432;2023-12-29T01:28:42;11.40;99.90
37088;DHT22;23002;52.676;6.432;2023-12-29T01:31:10;11.40;99.90
37088;DHT22;23002;52.676;6.432;2023-12-29T01:33:39;11.40;99.90
37088;DHT22;23002;52.676;6.432;2023-12-29T01:36:06;11.50;99.90
37088;DHT22;23002;52.676;6.432;2023-12-29T01:38:43;11.50;99.90
37088;DHT22;23002;52.676;6.432;2023-12-29T01:41:10;11.60;99.90
37088;DHT22;23002;52.676;6.432;2023-12-29T01:43:36;11.60;99.90
37088;DHT22;23002;52.676;6.432;2023-12-29T01:46:34;11.50;99.90
37088;DHT22;23002;52.676;6.432;2023-12-29T01:49:02;11.50;99.90
37088;DHT22;23002;52.676;6.432;2023-12-29T01:51:29;11.50;99.90
37088;DHT22;23002;52.676;6.432;2023-12-29T01:53:57;11.40;99.90
37088;DHT22;23002;52.676;6.432;2023-12-29T01:56:25;11.30;99.90
37088;DHT22;23002;52.676;6.432;2023-12-29T01:58:52;11.20;99.90
37088;DHT22;23002;52.676;6.432;2023-12-29T02:01:20;11.20;99.90
37088;DHT22;23002;52.676;6.432;2023-12-29T02:03:47;11.20;99.90
37088;DHT22;23002;52.676;6.432;2023-12-29T02:06:16;11.40;99.90
37088;DHT22;23002;52.676;6.432;2023-12-29T02:08:43;11.40;99.90
37088;DHT22;23002;52.676;6.432;2023-12-29T02:11:10;11.40;99.90
37088;DHT22;23002;52.676;6.432;2023-12-29T02:13:37;11.40;99.90
37088;DHT22;23002;52.676;6.432;2023-12-29T02:16:29;11.40;99.90
37088;DHT22;23002;52.676;6.432;2023-12-29T02:18:58;11.30;99.90
37088;DHT22;23002;52.676;6.432;2023-12-29T02:21:26;11.40;99.90
37088;DHT22;23002;52.676;6.432;2023-12-29T02:23:53;11.50;99.90
37088;DHT22;23002;52.676;6.432;2023-12-29T02:26:22;11.60;99.90
37088;DHT22;23002;52.676;6.432;2023-12-29T02:28:53;11.50;99.90
37088;DHT22;23002;52.676;6.432;2023-12-29T02:31:24;11.50;99.90
37088;DHT22;23002;52.676;6.432;2023-12-29T02:33:52;11.50;99.90
37088;DHT22;23002;52.676;6.432;2023-12-29T02:36:22;11.50;99.90
37088;DHT22;23002;52.676;6.432;2023-12-29T02:38:50;11.50;99.90
37088;DHT22;23002;52.676;6.432;2023-12-29T02:41:17;11.80;99.90
37088;DHT22;23002;52.676;6.432;2023-12-29T02:43:44;11.60;99.90
37088;DHT22;23002;52.676;6.432;2023-12-29T02:46:11;11.60;99.90
37088;DHT22;23002;52.676;6.432;2023-12-29T02:48:38;11.50;99.90
37088;DHT22;23002;52.676;6.432;2023-12-29T02:51:05;11.60;99.90
37088;DHT22;23002;52.676;6.432;2023-12-29T02:53:32;11.60;99.90
37088;DHT22;23002;52.676;6.432;2023-12-29T02:55:59;11.60;99.90
37088;DHT22;23002;52.676;6.432;2023-12-29T02:58:25;11.70;99.90
37088;DHT22;23002;52.676;6.432;2023-12-29T03:00:52;11.80;99.90
37088;DHT22;23002;52.676;6.432;2023-12-29T03:03:20;11.70;99.90
37088;DHT22;23002;52.676;6.432;2023-12-29T03:05:47;11.60;99.90
37088;DHT22;23002;52.676;6.432;2023-12-29T03:08:14;11.60;99.90
37088;DHT22;23002;52.676;6.432;2023-12-29T03:10:41;11.60;99.90
37088;DHT22;23002;52.676;6.432;2023-12-29T03:13:07;11.60;99.90
37088;DHT22;23002;52.676;6.432;2023-12-29T03:15:35;11.40;99.90
37088;DHT22;23002;52.676;6.432;2023-12-29T03:18:02;11.30;99.90
37088;DHT22;23002;52.676;6.432;2023-12-29T03:20:29;11.30;99.90
37088;DHT22;23002;52.676;6.432;2023-12-29T03:22:56;11.30;99.90
37088;DHT22;23002;52.676;6.432;2023-12-29T03:25:23;11.10;99.90
37088;DHT22;23002;52.676;6.432;2023-12-29T03:27:50;11.00;99.90
37088;DHT22;23002;52.676;6.432;2023-12-29T03:30:17;10.90;99.90
37088;DHT22;23002;52.676;6.432;2023-12-29T03:32:44;10.80;99.90
37088;DHT22;23002;52.676;6.432;2023-12-29T03:35:11;10.80;99.90
37088;DHT22;23002;52.676;6.432;2023-12-29T03:37:38;10.60;99.90
37088;DHT22;23002;52.676;6.432;2023-12-29T03:40:05;10.70;99.90
37088;DHT22;23002;52.676;6.432;2023-12-29T03:42:32;10.60;99.90
37088;DHT22;23002;52.676;6.432;2023-12-29T03:44:59;10.70;99.90
37088;DHT22;23002;52.676;6.432;2023-12-29T03:47:26;10.70;99.90
37088;DHT22;23002;52.676;6.432;2023-12-29T03:49:53;10.70;99.90
37088;DHT22;23002;52.676;6.432;2023-12-29T03:52:19;10.80;99.90
37088;DHT22;23002;52.676;6.432;2023-12-29T03:54:46;10.90;99.90
37088;DHT22;23002;52.676;6.432;2023-12-29T03:57:13;11.00;99.90
37088;DHT22;23002;52.676;6.432;2023-12-29T03:59:40;11.20;99.90
37088;DHT22;23002;52.676;6.432;2023-12-29T04:02:07;11.20;99.90
37088;DHT22;23002;52.676;6.432;2023-12-29T04:04:37;11.30;99.90
37088;DHT22;23002;52.676;6.432;2023-12-29T04:07:05;11.20;99.90
37088;DHT22;23002;52.676;6.432;2023-12-29T04:09:32;11.20;99.90
37088;DHT22;23002;52.676;6.432;2023-12-29T04:11:58;11.00;99.90
37088;DHT22;23002;52.676;6.432;2023-12-29T04:14:25;10.90;99.90
37088;DHT22;23002;52.676;6.432;2023-12-29T04:16:52;10.90;99.90
37088;DHT22;23002;52.676;6.432;2023-12-29T04:19:18;11.00;99.90
37088;DHT22;23002;52.676;6.432;2023-12-29T04:21:45;10.90;99.90
37088;DHT22;23002;52.676;6.432;2023-12-29T04:24:12;11.00;99.90
37088;DHT22;23002;52.676;6.432;2023-12-29T04:26:39;10.90;99.90
37088;DHT22;23002;52.676;6.432;2023-12-29T04:29:06;10.90;99.90
37088;DHT22;23002;52.676;6.432;2023-12-29T04:31:33;10.90;99.90
37088;DHT22;23002;52.676;6.432;2023-12-29T04:34:00;10.80;99.90
37088;DHT22;23002;52.676;6.432;2023-12-29T04:36:26;10.80;99.90
37088;DHT22;23002;52.676;6.432;2023-12-29T04:38:53;10.80;99.90
37088;DHT22;23002;52.676;6.432;2023-12-29T04:41:20;10.90;99.90
37088;DHT22;23002;52.676;6.432;2023-12-29T04:43:47;10.90;99.90
37088;DHT22;23002;52.676;6.432;2023-12-29T04:46:13;10.70;99.90
37088;DHT22;23002;52.676;6.432;2023-12-29T04:48:40;10.80;99.90
37088;DHT22;23002;52.676;6.432;2023-12-29T04:51:07;10.80;99.90
37088;DHT22;23002;52.676;6.432;2023-12-29T04:53:34;10.80;99.90
37088;DHT22;23002;52.676;6.432;2023-12-29T04:56:00;10.90;99.90
37088;DHT22;23002;52.676;6.432;2023-12-29T04:58:27;10.90;99.90
37088;DHT22;23002;52.676;6.432;2023-12-29T05:00:54;10.90;99.90
37088;DHT22;23002;52.676;6.432;2023-12-29T05:03:21;10.90;99.90
37088;DHT22;23002;52.676;6.432;2023-12-29T05:05:47;11.20;99.90
37088;DHT22;23002;52.676;6.432;2023-12-29T05:08:14;11.20;99.90
37088;DHT22;23002;52.676;6.432;2023-12-29T05:10:41;11.20;99.90
37088;DHT22;23002;52.676;6.432;2023-12-29T05:13:08;11.20;99.90
37088;DHT22;23002;52.676;6.432;2023-12-29T05:15:34;11.30;99.90
37088;DHT22;23002;52.676;6.432;2023-12-29T05:18:01;11.40;99.90
37088;DHT22;23002;52.676;6.432;2023-12-29T05:20:28;11.40;99.90
37088;DHT22;23002;52.676;6.432;2023-12-29T05:22:55;11.40;99.90
37088;DHT22;23002;52.676;6.432;2023-12-29T05:25:22;11.50;99.90
37088;DHT22;23002;52.676;6.432;2023-12-29T05:27:50;11.30;99.90
37088;DHT22;23002;52.676;6.432;2023-12-29T05:30:17;11.20;99.90
37088;DHT22;23002;52.676;6.432;2023-12-29T05:32:44;11.10;99.90
37088;DHT22;23002;52.676;6.432;2023-12-29T05:35:11;11.00;99.90
37088;DHT22;23002;52.676;6.432;2023-12-29T05:37:38;11.10;99.90
37088;DHT22;23002;52.676;6.432;2023-12-29T05:40:05;11.30;99.90
37088;DHT22;23002;52.676;6.432;2023-12-29T05:42:32;11.40;99.90
37088;DHT22;23002;52.676;6.432;2023-12-29T05:44:59;10.70;99.90
37088;DHT22;23002;52.676;6.432;2023-12-29T05:47:25;11.60;99.90
37088;DHT22;23002;52.676;6.432;2023-12-29T05:49:52;11.40;99.90
37088;DHT22;23002;52.676;6.432;2023-12-29T05:52:20;11.80;99.90
37088;DHT22;23002;52.676;6.432;2023-12-29T05:54:47;11.30;99.90
37088;DHT22;23002;52.676;6.432;2023-12-29T05:57:15;11.20;99.90
37088;DHT22;23002;52.676;6.432;2023-12-29T05:59:42;11.20;99.90
37088;DHT22;23002;52.676;6.432;2023-12-29T06:02:09;11.30;99.90
37088;DHT22;23002;52.676;6.432;2023-12-29T06:04:36;11.40;99.90
37088;DHT22;23002;52.676;6.432;2023-12-29T06:07:03;11.20;99.90
37088;DHT22;23002;52.676;6.432;2023-12-29T06:09:29;11.10;99.90
37088;DHT22;23002;52.676;6.432;2023-12-29T06:11:56;11.30;99.90
37088;DHT22;23002;52.676;6.432;2023-12-29T06:14:23;11.40;99.90
37088;DHT22;23002;52.676;6.432;2023-12-29T06:16:50;11.80;99.90
37088;DHT22;23002;52.676;6.432;2023-12-29T06:19:18;11.50;99.90
37088;DHT22;23002;52.676;6.432;2023-12-29T06:21:45;11.90;99.90
37088;DHT22;23002;52.676;6.432;2023-12-29T06:24:12;11.50;99.90
37088;DHT22;23002;52.676;6.432;2023-12-29T06:26:39;12.00;99.90
37088;DHT22;23002;52.676;6.432;2023-12-29T06:29:10;11.50;99.90
37088;DHT22;23002;52.676;6.432;2023-12-29T06:31:40;12.00;99.90
37088;DHT22;23002;52.676;6.432;2023-12-29T06:34:08;11.50;99.90
37088;DHT22;23002;52.676;6.432;2023-12-29T06:36:35;11.50;99.90
37088;DHT22;23002;52.676;6.432;2023-12-29T06:39:02;11.40;99.90
37088;DHT22;23002;52.676;6.432;2023-12-29T06:41:29;11.20;99.90
37088;DHT22;23002;52.676;6.432;2023-12-29T06:43:55;11.30;99.90
37088;DHT22;23002;52.676;6.432;2023-12-29T06:46:22;11.40;99.90
37088;DHT22;23002;52.676;6.432;2023-12-29T06:48:49;11.40;99.90
37088;DHT22;23002;52.676;6.432;2023-12-29T06:51:17;11.40;99.90
37088;DHT22;23002;52.676;6.432;2023-12-29T06:53:46;11.40;99.90
37088;DHT22;23002;52.676;6.432;2023-12-29T06:56:16;11.40;99.90
37088;DHT22;23002;52.676;6.432;2023-12-29T06:58:44;11.20;99.90
37088;DHT22;23002;52.676;6.432;2023-12-29T07:01:11;11.20;99.90
37088;DHT22;23002;52.676;6.432;2023-12-29T07:03:39;10.90;99.90
37088;DHT22;23002;52.676;6.432;2023-12-29T07:06:06;11.20;99.90
37088;DHT22;23002;52.676;6.432;2023-12-29T07:08:33;11.10;99.90
37088;DHT22;23002;52.676;6.432;2023-12-29T07:10:59;11.10;99.90
37088;DHT22;23002;52.676;6.432;2023-12-29T07:13:26;10.60;99.90
37088;DHT22;23002;52.676;6.432;2023-12-29T07:15:53;11.10;99.90
37088;DHT22;23002;52.676;6.432;2023-12-29T07:18:20;11.00;99.90
37088;DHT22;23002;52.676;6.432;2023-12-29T07:20:47;11.00;99.90
37088;DHT22;23002;52.676;6.432;2023-12-29T07:23:14;10.90;99.90
37088;DHT22;23002;52.676;6.432;2023-12-29T07:25:40;10.80;99.90
37088;DHT22;23002;52.676;6.432;2023-12-29T07:28:07;10.80;99.90
37088;DHT22;23002;52.676;6.432;2023-12-29T07:30:34;10.90;99.90
37088;DHT22;23002;52.676;6.432;2023-12-29T07:33:01;10.80;99.90
37088;DHT22;23002;52.676;6.432;2023-12-29T07:35:29;10.80;99.90
37088;DHT22;23002;52.676;6.432;2023-12-29T07:37:56;10.80;99.90
37088;DHT22;23002;52.676;6.432;2023-12-29T07:40:23;10.80;99.90
37088;DHT22;23002;52.676;6.432;2023-12-29T07:42:50;10.90;99.90
37088;DHT22;23002;52.676;6.432;2023-12-29T07:45:17;10.70;99.90
37088;DHT22;23002;52.676;6.432;2023-12-29T07:47:44;10.80;99.90
37088;DHT22;23002;52.676;6.432;2023-12-29T07:50:11;10.80;99.90
37088;DHT22;23002;52.676;6.432;2023-12-29T07:52:38;10.70;99.90
37088;DHT22;23002;52.676;6.432;2023-12-29T07:55:05;10.80;99.90
37088;DHT22;23002;52.676;6.432;2023-12-29T07:57:32;10.80;99.90
37088;DHT22;23002;52.676;6.432;2023-12-29T07:59:59;10.80;99.90
37088;DHT22;23002;52.676;6.432;2023-12-29T08:02:25;10.80;99.90
37088;DHT22;23002;52.676;6.432;2023-12-29T08:04:53;10.90;99.90
37088;DHT22;23002;52.676;6.432;2023-12-29T08:09:48;11.10;99.90
37088;DHT22;23002;52.676;6.432;2023-12-29T08:12:15;11.20;99.90
37088;DHT22;23002;52.676;6.432;2023-12-29T08:14:41;11.30;99.90
37088;DHT22;23002;52.676;6.432;2023-12-29T08:17:08;11.20;99.90
37088;DHT22;23002;52.676;6.432;2023-12-29T08:19:35;11.10;99.90
37088;DHT22;23002;52.676;6.432;2023-12-29T08:22:03;11.20;99.90
37088;DHT22;23002;52.676;6.432;2023-12-29T08:24:30;11.30;99.90
37088;DHT22;23002;52.676;6.432;2023-12-29T08:26:56;11.40;99.90
37088;DHT22;23002;52.676;6.432;2023-12-29T08:29:23;11.30;99.90
37088;DHT22;23002;52.676;6.432;2023-12-29T08:31:52;11.30;99.90
37088;DHT22;23002;52.676;6.432;2023-12-29T08:34:19;11.40;99.90
37088;DHT22;23002;52.676;6.432;2023-12-29T08:36:46;11.50;99.90
37088;DHT22;23002;52.676;6.432;2023-12-29T08:39:13;11.50;99.90
37088;DHT22;23002;52.676;6.432;2023-12-29T08:41:41;11.50;99.90
37088;DHT22;23002;52.676;6.432;2023-12-29T08:44:08;11.40;99.90
37088;DHT22;23002;52.676;6.432;2023-12-29T08:46:35;11.20;99.90
37088;DHT22;23002;52.676;6.432;2023-12-29T08:49:02;11.30;99.90
37088;DHT22;23002;52.676;6.432;2023-12-29T08:51:29;11.40;99.90
37088;DHT22;23002;52.676;6.432;2023-12-29T08:53:55;11.40;99.90
37088;DHT22;23002;52.676;6.432;2023-12-29T08:56:22;11.50;99.90
37088;DHT22;23002;52.676;6.432;2023-12-29T08:58:52;11.40;99.90
37088;DHT22;23002;52.676;6.432;2023-12-29T09:01:19;11.40;99.90
37088;DHT22;23002;52.676;6.432;2023-12-29T09:03:46;11.70;99.90
37088;DHT22;23002;52.676;6.432;2023-12-29T09:06:13;11.70;99.90
37088;DHT22;23002;52.676;6.432;2023-12-29T09:08:40;11.70;99.90
37088;DHT22;23002;52.676;6.432;2023-12-29T09:11:07;11.70;99.90
37088;DHT22;23002;52.676;6.432;2023-12-29T09:13:34;11.80;99.90
37088;DHT22;23002;52.676;6.432;2023-12-29T09:16:00;11.80;99.90
37088;DHT22;23002;52.676;6.432;2023-12-29T09:18:27;11.90;99.90
37088;DHT22;23002;52.676;6.432;2023-12-29T09:20:54;11.80;99.90
37088;DHT22;23002;52.676;6.432;2023-12-29T09:23:21;11.80;99.90
37088;DHT22;23002;52.676;6.432;2023-12-29T09:25:48;11.60;99.90
37088;DHT22;23002;52.676;6.432;2023-12-29T09:28:15;11.50;99.90
37088;DHT22;23002;52.676;6.432;2023-12-29T09:30:42;11.60;99.90
37088;DHT22;23002;52.676;6.432;2023-12-29T09:33:09;11.50;99.90
37088;DHT22;23002;52.676;6.432;2023-12-29T09:35:39;11.40;99.90
37088;DHT22;23002;52.676;6.432;2023-12-29T09:38:06;11.50;99.90
37088;DHT22;23002;52.676;6.432;2023-12-29T09:40:33;11.50;99.90
37088;DHT22;23002;52.676;6.432;2023-12-29T09:43:01;11.30;99.90
37088;DHT22;23002;52.676;6.432;2023-12-29T09:45:30;11.30;99.90
37088;DHT22;23002;52.676;6.432;2023-12-29T09:47:58;11.10;99.90
37088;DHT22;23002;52.676;6.432;2023-12-29T09:50:27;10.90;99.90
37088;DHT22;23002;52.676;6.432;2023-12-29T09:52:54;11.00;99.90
37088;DHT22;23002;52.676;6.432;2023-12-29T09:55:21;11.00;99.90
37088;DHT22;23002;52.676;6.432;2023-12-29T09:57:48;10.90;99.90
37088;DHT22;23002;52.676;6.432;2023-12-29T10:00:16;10.70;99.90
37088;DHT22;23002;52.676;6.432;2023-12-29T10:02:44;10.40;99.90
37088;DHT22;23002;52.676;6.432;2023-12-29T10:05:10;10.40;99.90
37088;DHT22;23002;52.676;6.432;2023-12-29T10:07:39;10.40;99.90
37088;DHT22;23002;52.676;6.432;2023-12-29T10:10:07;10.30;99.90
37088;DHT22;23002;52.676;6.432;2023-12-29T10:12:35;10.00;99.90
37088;DHT22;23002;52.676;6.432;2023-12-29T10:15:17;9.90;99.90
37088;DHT22;23002;52.676;6.432;2023-12-29T10:28:03;8.60;99.90
37088;DHT22;23002;52.676;6.432;2023-12-29T10:30:30;8.60;99.90
37088;DHT22;23002;52.676;6.432;2023-12-29T10:35:31;8.90;99.90
37088;DHT22;23002;52.676;6.432;2023-12-29T10:38:09;8.90;99.90
37088;DHT22;23002;52.676;6.432;2023-12-29T10:45:37;9.30;99.90
37088;DHT22;23002;52.676;6.432;2023-12-29T10:48:05;9.40;99.90
37088;DHT22;23002;52.676;6.432;2023-12-29T10:50:45;9.50;99.90
37088;DHT22;23002;52.676;6.432;2023-12-29T10:55:45;9.70;99.90
37088;DHT22;23002;52.676;6.432;2023-12-29T10:58:15;10.00;99.90
37088;DHT22;23002;52.676;6.432;2023-12-29T11:00:42;10.20;99.90
37088;DHT22;23002;52.676;6.432;2023-12-29T11:03:15;10.30;99.90
37088;DHT22;23002;52.676;6.432;2023-12-29T11:05:42;10.30;99.90
37088;DHT22;23002;52.676;6.432;2023-12-29T11:08:20;10.40;99.90
37088;DHT22;23002;52.676;6.432;2023-12-29T11:10:48;10.60;99.90
37088;DHT22;23002;52.676;6.432;2023-12-29T11:13:15;10.80;99.90
37088;DHT22;23002;52.676;6.432;2023-12-29T11:18:15;11.20;99.90
37088;DHT22;23002;52.676;6.432;2023-12-29T11:20:43;11.40;99.90
37088;DHT22;23002;52.676;6.432;2023-12-29T11:23:11;11.40;99.90
37088;DHT22;23002;52.676;6.432;2023-12-29T11:53:52;12.10;99.90
37088;DHT22;23002;52.676;6.432;2023-12-29T12:09:24;12.40;99.90
37088;DHT22;23002;52.676;6.432;2023-12-29T12:11:54;12.30;99.90
37088;DHT22;23002;52.676;6.432;2023-12-29T12:17:10;12.40;99.90
37088;DHT22;23002;52.676;6.432;2023-12-29T12:24:38;12.40;99.90
37088;DHT22;23002;52.676;6.432;2023-12-29T12:29:37;12.30;99.90
37088;DHT22;23002;52.676;6.432;2023-12-29T12:32:06;12.00;99.90
37088;DHT22;23002;52.676;6.432;2023-12-29T12:37:06;12.50;99.90
37088;DHT22;23002;52.676;6.432;2023-12-29T12:39:40;12.40;99.90
37088;DHT22;23002;52.676;6.432;2023-12-29T12:42:07;12.50;99.90
37088;DHT22;23002;52.676;6.432;2023-12-29T12:44:34;12.30;99.90
37088;DHT22;23002;52.676;6.432;2023-12-29T12:47:08;12.20;99.90
37088;DHT22;23002;52.676;6.432;2023-12-29T12:54:32;12.30;99.90
37088;DHT22;23002;52.676;6.432;2023-12-29T12:57:01;12.40;99.90
37088;DHT22;23002;52.676;6.432;2023-12-29T12:59:28;12.30;99.90
37088;DHT22;23002;52.676;6.432;2023-12-29T13:01:55;12.10;99.90
37088;DHT22;23002;52.676;6.432;2023-12-29T13:04:22;12.30;99.90
37088;DHT22;23002;52.676;6.432;2023-12-29T13:06:49;12.00;99.90
37088;DHT22;23002;52.676;6.432;2023-12-29T13:09:18;11.80;99.90
37088;DHT22;23002;52.676;6.432;2023-12-29T13:11:46;12.00;99.90
37088;DHT22;23002;52.676;6.432;2023-12-29T13:14:22;12.00;99.90
37088;DHT22;23002;52.676;6.432;2023-12-29T13:16:50;12.00;99.90
37088;DHT22;23002;52.676;6.432;2023-12-29T13:19:24;11.90;99.90
37088;DHT22;23002;52.676;6.432;2023-12-29T13:21:53;11.80;99.90
37088;DHT22;23002;52.676;6.432;2023-12-29T13:24:23;11.90;99.90
37088;DHT22;23002;52.676;6.432;2023-12-29T13:26:55;11.70;99.90
37088;DHT22;23002;52.676;6.432;2023-12-29T13:29:24;11.70;99.90
37088;DHT22;23002;52.676;6.432;2023-12-29T13:31:54;11.80;99.90
37088;DHT22;23002;52.676;6.432;2023-12-29T13:34:34;11.80;99.90
37088;DHT22;23002;52.676;6.432;2023-12-29T13:37:30;11.80;99.90
37088;DHT22;23002;52.676;6.432;2023-12-29T13:39:57;11.80;99.90
37088;DHT22;23002;52.676;6.432;2023-12-29T13:42:28;11.80;99.90
37088;DHT22;23002;52.676;6.432;2023-12-29T13:44:58;11.70;99.90
37088;DHT22;23002;52.676;6.432;2023-12-29T13:47:26;11.80;99.90
37088;DHT22;23002;52.676;6.432;2023-12-29T13:49:53;11.90;99.90
37088;DHT22;23002;52.676;6.432;2023-12-29T13:52:20;11.80;99.90
37088;DHT22;23002;52.676;6.432;2023-12-29T13:54:47;11.80;99.90
37088;DHT22;23002;52.676;6.432;2023-12-29T13:57:15;11.90;99.90
37088;DHT22;23002;52.676;6.432;2023-12-29T13:59:44;12.00;99.90
37088;DHT22;23002;52.676;6.432;2023-12-29T14:02:27;12.10;99.90
37088;DHT22;23002;52.676;6.432;2023-12-29T14:05:19;12.00;99.90
37088;DHT22;23002;52.676;6.432;2023-12-29T14:07:53;11.90;99.90
37088;DHT22;23002;52.676;6.432;2023-12-29T14:10:21;12.10;99.90
37088;DHT22;23002;52.676;6.432;2023-12-29T14:15:16;11.80;99.90
37088;DHT22;23002;52.676;6.432;2023-12-29T14:17:43;12.00;99.90
37088;DHT22;23002;52.676;6.432;2023-12-29T14:20:10;12.00;99.90
37088;DHT22;23002;52.676;6.432;2023-12-29T14:22:37;11.70;99.90
37088;DHT22;23002;52.676;6.432;2023-12-29T14:25:07;11.80;99.90
37088;DHT22;23002;52.676;6.432;2023-12-29T14:27:35;11.80;99.90
37088;DHT22;23002;52.676;6.432;2023-12-29T14:30:02;11.80;99.90
37088;DHT22;23002;52.676;6.432;2023-12-29T14:32:29;11.80;99.90
37088;DHT22;23002;52.676;6.432;2023-12-29T14:34:56;11.80;99.90
37088;DHT22;23002;52.676;6.432;2023-12-29T14:37:23;11.80;99.90
37088;DHT22;23002;52.676;6.432;2023-12-29T14:39:50;11.90;99.90
37088;DHT22;23002;52.676;6.432;2023-12-29T14:42:17;11.80;99.90
37088;DHT22;23002;52.676;6.432;2023-12-29T14:44:47;11.70;99.90
37088;DHT22;23002;52.676;6.432;2023-12-29T14:47:15;11.70;99.90
37088;DHT22;23002;52.676;6.432;2023-12-29T14:49:43;11.80;99.90
37088;DHT22;23002;52.676;6.432;2023-12-29T14:52:09;11.80;99.90
37088;DHT22;23002;52.676;6.432;2023-12-29T14:57:07;11.80;99.90
37088;DHT22;23002;52.676;6.432;2023-12-29T14:59:41;11.90;99.90
37088;DHT22;23002;52.676;6.432;2023-12-29T15:02:08;12.50;99.90
37088;DHT22;23002;52.676;6.432;2023-12-29T15:04:35;12.00;99.90
37088;DHT22;23002;52.676;6.432;2023-12-29T15:07:02;12.40;99.90
37088;DHT22;23002;52.676;6.432;2023-12-29T15:09:30;11.90;99.90
37088;DHT22;23002;52.676;6.432;2023-12-29T15:11:57;11.80;99.90
37088;DHT22;23002;52.676;6.432;2023-12-29T15:19:20;11.70;99.90
37088;DHT22;23002;52.676;6.432;2023-12-29T15:21:47;11.90;99.90
37088;DHT22;23002;52.676;6.432;2023-12-29T15:24:14;12.10;99.90
37088;DHT22;23002;52.676;6.432;2023-12-29T15:26:41;11.70;99.90
37088;DHT22;23002;52.676;6.432;2023-12-29T15:29:08;11.60;99.90
37088;DHT22;23002;52.676;6.432;2023-12-29T15:34:02;11.10;99.90
37088;DHT22;23002;52.676;6.432;2023-12-29T15:43:51;10.30;99.90
37088;DHT22;23002;52.676;6.432;2023-12-29T15:48:49;10.00;99.90
37088;DHT22;23002;52.676;6.432;2023-12-29T15:51:15;9.80;99.90
37088;DHT22;23002;52.676;6.432;2023-12-29T15:53:42;9.90;99.90
37088;DHT22;23002;52.676;6.432;2023-12-29T15:56:17;10.00;99.90
37088;DHT22;23002;52.676;6.432;2023-12-29T15:58:47;10.10;99.90
37088;DHT22;23002;52.676;6.432;2023-12-29T16:01:22;10.10;99.90
37088;DHT22;23002;52.676;6.432;2023-12-29T16:03:51;10.20;99.90
37088;DHT22;23002;52.676;6.432;2023-12-29T16:06:27;10.50;99.90
37088;DHT22;23002;52.676;6.432;2023-12-29T16:08:54;10.60;99.90
37088;DHT22;23002;52.676;6.432;2023-12-29T16:11:26;10.70;99.90
37088;DHT22;23002;52.676;6.432;2023-12-29T16:13:53;10.80;99.90
37088;DHT22;23002;52.676;6.432;2023-12-29T16:16:20;10.40;99.90
37088;DHT22;23002;52.676;6.432;2023-12-29T16:18:47;10.50;99.90
37088;DHT22;23002;52.676;6.432;2023-12-29T16:23:41;10.90;99.90
37088;DHT22;23002;52.676;6.432;2023-12-29T16:26:09;10.80;99.90
37088;DHT22;23002;52.676;6.432;2023-12-29T16:28:36;10.80;99.90
37088;DHT22;23002;52.676;6.432;2023-12-29T16:31:04;10.90;99.90
37088;DHT22;23002;52.676;6.432;2023-12-29T16:33:31;10.90;99.90
37088;DHT22;23002;52.676;6.432;2023-12-29T16:36:05;11.10;99.90
37088;DHT22;23002;52.676;6.432;2023-12-29T16:38:32;11.00;99.90
37088;DHT22;23002;52.676;6.432;2023-12-29T16:40:59;11.00;99.90
37088;DHT22;23002;52.676;6.432;2023-12-29T16:43:26;11.00;99.90
37088;DHT22;23002;52.676;6.432;2023-12-29T16:45:52;11.00;99.90
37088;DHT22;23002;52.676;6.432;2023-12-29T16:48:21;11.20;99.90
37088;DHT22;23002;52.676;6.432;2023-12-29T16:50:48;11.10;99.90
37088;DHT22;23002;52.676;6.432;2023-12-29T16:53:15;10.90;99.90
37088;DHT22;23002;52.676;6.432;2023-12-29T16:55:42;10.90;99.90
37088;DHT22;23002;52.676;6.432;2023-12-29T16:58:08;10.90;99.90
37088;DHT22;23002;52.676;6.432;2023-12-29T17:00:36;10.50;99.90
37088;DHT22;23002;52.676;6.432;2023-12-29T17:03:03;10.60;99.90
37088;DHT22;23002;52.676;6.432;2023-12-29T17:05:30;10.50;99.90
37088;DHT22;23002;52.676;6.432;2023-12-29T17:07:58;10.20;99.90
37088;DHT22;23002;52.676;6.432;2023-12-29T17:10:25;10.10;99.90
37088;DHT22;23002;52.676;6.432;2023-12-29T17:12:52;10.20;99.90
37088;DHT22;23002;52.676;6.432;2023-12-29T17:15:19;10.10;99.90
37088;DHT22;23002;52.676;6.432;2023-12-29T17:17:48;10.00;99.90
37088;DHT22;23002;52.676;6.432;2023-12-29T17:20:15;9.90;99.90
37088;DHT22;23002;52.676;6.432;2023-12-29T17:25:09;9.10;99.90
37088;DHT22;23002;52.676;6.432;2023-12-29T17:30:04;8.70;99.90